createdAt,value
2023-03-27T00:01:16.948Z,100.00
2023-03-27T00:03:44.982Z,100.00
2023-03-27T00:06:16.934Z,100.00
2023-03-27T00:08:51.960Z,100.00
2023-03-27T00:11:21.511Z,100.00
2023-03-27T00:13:54.545Z,100.00
2023-03-27T00:16:25.456Z,100.00
2023-03-27T00:18:54.514Z,100.00
2023-03-27T00:21:22.601Z,100.00
2023-03-27T00:23:49.886Z,100.00
2023-03-27T00:26:16.987Z,100.00
2023-03-27T00:28:44.102Z,100.00
2023-03-27T00:31:16.925Z,100.00
2023-03-27T00:33:44.175Z,100.00
2023-03-27T00:36:11.586Z,100.00
2023-03-27T00:38:43.539Z,100.00
2023-03-27T00:41:11.164Z,100.00
2023-03-27T00:43:43.838Z,100.00
2023-03-27T00:46:41.704Z,100.00
2023-03-27T00:49:13.746Z,100.00
2023-03-27T00:51:43.759Z,100.00
2023-03-27T00:54:12.743Z,100.00
2023-03-27T00:56:40.228Z,100.00
2023-03-27T00:59:14.105Z,100.00
2023-03-27T01:01:42.526Z,100.00
2023-03-27T01:04:10.513Z,100.00
2023-03-27T01:06:39.284Z,100.00
2023-03-27T01:09:06.527Z,100.00
2023-03-27T01:11:45.346Z,100.00
2023-03-27T01:14:41.337Z,100.00
2023-03-27T01:17:24.485Z,100.00
2023-03-27T01:20:23.063Z,100.00
2023-03-27T01:23:03.185Z,100.00
2023-03-27T01:25:55.902Z,100.00
2023-03-27T01:29:05.893Z,100.00
2023-03-27T01:32:08.721Z,100.00
2023-03-27T01:35:37.073Z,100.00
2023-03-27T01:38:36.469Z,100.00
2023-03-27T01:41:24.734Z,100.00
2023-03-27T01:44:00.864Z,100.00
2023-03-27T01:46:41.866Z,100.00
2023-03-27T01:49:31.348Z,100.00
2023-03-27T01:52:08.233Z,100.00
2023-03-27T01:54:46.864Z,100.00
2023-03-27T01:57:22.438Z,100.00
2023-03-27T02:00:18.031Z,100.00
2023-03-27T02:03:10.038Z,100.00
2023-03-27T02:05:46.152Z,100.00
2023-03-27T02:08:24.820Z,100.00
2023-03-27T02:10:58.583Z,100.00
2023-03-27T02:13:59.734Z,100.00
2023-03-27T02:16:34.031Z,100.00
2023-03-27T02:19:28.406Z,100.00
2023-03-27T02:21:55.724Z,100.00
2023-03-27T02:24:23.098Z,100.00
2023-03-27T02:27:04.455Z,100.00
2023-03-27T02:30:07.177Z,100.00
2023-03-27T02:33:04.157Z,100.00
2023-03-27T02:35:49.315Z,100.00
2023-03-27T02:38:41.860Z,100.00
2023-03-27T02:41:39.097Z,100.00
2023-03-27T02:44:18.078Z,100.00
2023-03-27T02:47:07.669Z,100.00
2023-03-27T02:50:05.800Z,100.00
2023-03-27T02:52:52.061Z,100.00
2023-03-27T02:55:27.592Z,100.00
2023-03-27T02:58:00.580Z,100.00
2023-03-27T03:00:33.122Z,100.00
2023-03-27T03:03:27.946Z,100.00
2023-03-27T03:05:57.338Z,100.00
2023-03-27T03:08:30.604Z,100.00
2023-03-27T03:11:03.494Z,100.00
2023-03-27T03:13:30.872Z,100.00
2023-03-27T03:15:58.890Z,100.00
2023-03-27T03:18:26.737Z,100.00
2023-03-27T03:20:55.483Z,100.00
2023-03-27T03:23:27.267Z,100.00
2023-03-27T03:25:56.902Z,100.00
2023-03-27T03:28:26.127Z,100.00
2023-03-27T03:30:58.963Z,100.00
2023-03-27T03:33:28.260Z,100.00
2023-03-27T03:35:59.037Z,100.00
2023-03-27T03:38:28.188Z,100.00
2023-03-27T03:40:58.539Z,100.00
2023-03-27T03:43:28.712Z,100.00
2023-03-27T03:45:56.170Z,100.00
2023-03-27T03:48:23.919Z,100.00
2023-03-27T03:50:51.030Z,100.00
2023-03-27T03:53:21.556Z,100.00
2023-03-27T03:55:53.419Z,100.00
2023-03-27T03:58:20.844Z,100.00
2023-03-27T04:01:02.976Z,100.00
2023-03-27T04:03:32.659Z,100.00
2023-03-27T04:06:01.353Z,100.00
2023-03-27T04:08:28.755Z,100.00
2023-03-27T04:10:56.101Z,100.00
2023-03-27T04:13:23.929Z,100.00
2023-03-27T04:15:51.447Z,100.00
2023-03-27T04:18:19.691Z,100.00
2023-03-27T04:20:50.922Z,100.00
2023-03-27T04:23:20.871Z,100.00
2023-03-27T04:25:48.157Z,100.00
2023-03-27T04:28:18.300Z,100.00
2023-03-27T04:30:50.630Z,100.00
2023-03-27T04:33:21.452Z,100.00
2023-03-27T04:36:06.177Z,100.00
2023-03-27T04:38:37.080Z,100.00
2023-03-27T04:41:06.236Z,100.00
2023-03-27T04:43:39.393Z,100.00
2023-03-27T04:46:08.520Z,100.00
2023-03-27T04:48:39.072Z,100.00
2023-03-27T04:51:09.446Z,100.00
2023-03-27T04:53:37.860Z,100.00
2023-03-27T04:56:06.511Z,100.00
2023-03-27T04:58:37.728Z,100.00
2023-03-27T05:01:06.026Z,100.00
2023-03-27T05:03:43.064Z,100.00
2023-03-27T05:06:16.833Z,100.00
2023-03-27T05:08:47.474Z,100.00
2023-03-27T05:11:18.183Z,100.00
2023-03-27T05:13:46.982Z,100.00
2023-03-27T05:16:17.695Z,100.00
2023-03-27T05:18:46.429Z,100.00
2023-03-27T05:21:14.963Z,100.00
2023-03-27T05:23:43.951Z,100.00
2023-03-27T05:26:12.892Z,100.00
2023-03-27T05:28:43.268Z,100.00
2023-03-27T05:31:12.549Z,100.00
2023-03-27T05:33:41.046Z,100.00
2023-03-27T05:36:10.010Z,100.00
2023-03-27T05:38:37.297Z,100.00
2023-03-27T05:41:04.656Z,100.00
2023-03-27T05:43:32.292Z,100.00
2023-03-27T05:45:59.660Z,100.00
2023-03-27T05:48:27.904Z,100.00
2023-03-27T05:50:57.297Z,100.00
2023-03-27T05:53:28.019Z,100.00
2023-03-27T05:56:03.128Z,100.00
2023-03-27T05:58:31.673Z,100.00
2023-03-27T06:01:00.713Z,100.00
2023-03-27T06:03:35.714Z,100.00
2023-03-27T06:06:12.447Z,100.00
2023-03-27T06:08:41.546Z,100.00
2023-03-27T06:11:10.749Z,100.00
2023-03-27T06:13:38.213Z,100.00
2023-03-27T06:16:06.993Z,100.00
2023-03-27T06:18:34.979Z,100.00
2023-03-27T06:21:03.748Z,100.00
2023-03-27T06:23:32.917Z,100.00
2023-03-27T06:26:00.319Z,100.00
2023-03-27T06:28:28.630Z,100.00
2023-03-27T06:30:59.804Z,100.00
2023-03-27T06:33:31.234Z,100.00
2023-03-27T06:36:02.112Z,100.00
2023-03-27T06:38:33.529Z,100.00
2023-03-27T06:41:04.357Z,100.00
2023-03-27T06:43:35.192Z,100.00
2023-03-27T06:46:06.776Z,100.00
2023-03-27T06:48:37.746Z,100.00
2023-03-27T06:51:08.508Z,100.00
2023-03-27T06:53:38.319Z,100.00
2023-03-27T06:56:06.814Z,100.00
2023-03-27T06:58:33.875Z,100.00
2023-03-27T07:01:00.888Z,100.00
2023-03-27T07:03:28.062Z,100.00
2023-03-27T07:05:55.889Z,100.00
2023-03-27T07:08:24.827Z,100.00
2023-03-27T07:13:24.585Z,100.00
2023-03-27T07:15:51.778Z,100.00
2023-03-27T07:18:18.898Z,100.00
2023-03-27T07:20:48.154Z,100.00
2023-03-27T07:23:15.533Z,100.00
2023-03-27T07:25:42.976Z,100.00
2023-03-27T07:28:16.633Z,100.00
2023-03-27T07:30:43.887Z,100.00
2023-03-27T07:33:11.069Z,100.00
2023-03-27T07:35:46.542Z,100.00
2023-03-27T07:38:14.743Z,100.00
2023-03-27T07:40:46.711Z,100.00
2023-03-27T07:43:14.373Z,100.00
2023-03-27T07:45:42.135Z,100.00
2023-03-27T07:48:16.789Z,100.00
2023-03-27T07:50:45.304Z,100.00
2023-03-27T07:53:32.715Z,100.00
2023-03-27T07:56:01.577Z,100.00
2023-03-27T07:58:29.913Z,100.00
2023-03-27T08:01:06.346Z,100.00
2023-03-27T08:03:35.176Z,100.00
2023-03-27T08:06:03.167Z,100.00
2023-03-27T08:08:31.281Z,100.00
2023-03-27T08:11:01.391Z,100.00
2023-03-27T08:13:29.879Z,100.00
2023-03-27T08:16:05.969Z,100.00
2023-03-27T08:18:33.531Z,100.00
2023-03-27T08:21:03.836Z,100.00
2023-03-27T08:23:33.628Z,100.00
2023-03-27T08:26:02.071Z,100.00
2023-03-27T08:28:31.277Z,100.00
2023-03-27T08:31:02.761Z,100.00
2023-03-27T08:33:31.032Z,100.00
2023-03-27T08:35:58.397Z,100.00
2023-03-27T08:38:28.627Z,100.00
2023-03-27T08:41:00.541Z,100.00
2023-03-27T08:43:44.725Z,100.00
2023-03-27T08:46:26.146Z,100.00
2023-03-27T08:48:56.986Z,100.00
2023-03-27T08:51:34.402Z,100.00
2023-03-27T08:54:23.565Z,100.00
2023-03-27T08:56:52.568Z,100.00
2023-03-27T08:59:22.587Z,100.00
2023-03-27T09:02:01.330Z,100.00
2023-03-27T09:04:38.244Z,100.00
2023-03-27T09:07:13.073Z,100.00
2023-03-27T09:09:55.653Z,100.00
2023-03-27T09:12:57.987Z,100.00
2023-03-27T09:15:30.845Z,100.00
2023-03-27T09:18:00.600Z,100.00
2023-03-27T09:20:28.306Z,100.00
2023-03-27T09:23:12.395Z,100.00
2023-03-27T09:25:47.754Z,100.00
2023-03-27T09:29:19.982Z,100.00
2023-03-27T09:31:51.191Z,100.00
2023-03-27T09:34:29.974Z,100.00
2023-03-27T09:36:59.811Z,100.00
2023-03-27T09:39:33.349Z,100.00
2023-03-27T09:42:24.066Z,100.00
2023-03-27T09:44:56.911Z,100.00
2023-03-27T09:47:58.683Z,100.00
2023-03-27T09:50:33.865Z,100.00
2023-03-27T09:53:12.323Z,100.00
2023-03-27T09:56:14.452Z,100.00
2023-03-27T09:58:46.234Z,100.00
2023-03-27T10:01:34.531Z,100.00
2023-03-27T10:04:10.941Z,100.00
2023-03-27T10:06:48.282Z,100.00
2023-03-27T10:09:30.970Z,100.00
2023-03-27T10:12:21.991Z,100.00
2023-03-27T10:14:52.775Z,100.00
2023-03-27T10:17:33.206Z,100.00
2023-03-27T10:20:10.594Z,100.00
2023-03-27T10:22:43.629Z,100.00
2023-03-27T10:25:21.788Z,100.00
2023-03-27T10:27:55.323Z,100.00
2023-03-27T10:30:30.732Z,100.00
2023-03-27T10:32:59.584Z,100.00
2023-03-27T10:35:31.740Z,100.00
2023-03-27T10:38:14.283Z,100.00
2023-03-27T10:40:56.851Z,100.00
2023-03-27T10:43:40.660Z,100.00
2023-03-27T10:46:19.873Z,100.00
2023-03-27T10:49:10.083Z,100.00
2023-03-27T10:52:11.540Z,100.00
2023-03-27T10:54:55.140Z,100.00
2023-03-27T10:57:31.138Z,100.00
2023-03-27T11:00:19.424Z,100.00
2023-03-27T11:03:10.346Z,100.00
2023-03-27T11:05:48.824Z,100.00
2023-03-27T11:08:54.277Z,100.00
2023-03-27T11:11:31.295Z,100.00
2023-03-27T11:14:05.420Z,100.00
2023-03-27T11:16:52.833Z,100.00
2023-03-27T11:19:46.993Z,100.00
2023-03-27T11:22:36.538Z,100.00
2023-03-27T11:25:24.450Z,100.00
2023-03-27T11:28:27.667Z,100.00
2023-03-27T11:31:24.263Z,100.00
2023-03-27T11:34:11.092Z,100.00
2023-03-27T11:36:50.400Z,100.00
2023-03-27T11:39:31.227Z,100.00
2023-03-27T11:42:02.603Z,100.00
2023-03-27T11:44:32.125Z,100.00
2023-03-27T11:47:36.205Z,100.00
2023-03-27T11:50:30.009Z,100.00
2023-03-27T11:53:30.480Z,100.00
2023-03-27T11:56:09.863Z,100.00
2023-03-27T11:58:44.292Z,100.00
2023-03-27T12:01:24.036Z,100.00
2023-03-27T12:04:17.201Z,100.00
2023-03-27T12:07:15.514Z,100.00
2023-03-27T12:10:05.019Z,100.00
2023-03-27T12:12:47.008Z,100.00
2023-03-27T12:15:47.506Z,100.00
2023-03-27T12:21:36.379Z,100.00
2023-03-27T12:24:21.769Z,100.00
2023-03-27T12:27:07.903Z,100.00
2023-03-27T12:29:58.953Z,100.00
2023-03-27T12:32:55.358Z,100.00
2023-03-27T12:35:31.090Z,100.00
2023-03-27T12:38:06.327Z,100.00
2023-03-27T12:40:42.008Z,100.00
2023-03-27T12:43:22.222Z,100.00
2023-03-27T12:46:24.527Z,100.00
2023-03-27T12:48:56.405Z,100.00
2023-03-27T12:51:51.962Z,100.00
2023-03-27T12:54:38.650Z,100.00
2023-03-27T12:57:21.464Z,100.00
2023-03-27T12:59:48.996Z,100.00
2023-03-27T13:02:57.605Z,100.00
2023-03-27T13:06:18.806Z,100.00
2023-03-27T13:08:54.612Z,100.00
2023-03-27T13:11:52.967Z,100.00
2023-03-27T13:14:52.988Z,100.00
2023-03-27T13:17:48.094Z,100.00
2023-03-27T13:20:27.286Z,100.00
2023-03-27T13:23:38.940Z,100.00
2023-03-27T13:26:59.232Z,100.00
2023-03-27T13:29:33.280Z,100.00
2023-03-27T13:32:40.092Z,100.00
2023-03-27T13:35:20.338Z,100.00
2023-03-27T13:37:58.703Z,100.00
2023-03-27T13:40:35.198Z,100.00
2023-03-27T13:43:26.040Z,100.00
2023-03-27T13:46:00.028Z,100.00
2023-03-27T13:48:50.292Z,100.00
2023-03-27T13:51:58.943Z,100.00
2023-03-27T13:54:45.540Z,100.00
2023-03-27T13:57:21.436Z,100.00
2023-03-27T14:00:31.262Z,100.00
2023-03-27T14:02:59.168Z,100.00
2023-03-27T14:05:36.650Z,100.00
2023-03-27T14:08:29.540Z,100.00
2023-03-27T14:11:52.990Z,100.00
2023-03-27T14:14:37.258Z,100.00
2023-03-27T14:17:25.880Z,100.00
2023-03-27T14:20:08.127Z,100.00
2023-03-27T14:22:48.284Z,100.00
2023-03-27T14:25:26.465Z,100.00
2023-03-27T14:27:56.420Z,100.00
2023-03-27T14:30:27.637Z,100.00
2023-03-27T14:33:04.382Z,100.00
2023-03-27T14:35:37.465Z,100.00
2023-03-27T14:38:22.014Z,100.00
2023-03-27T14:40:52.970Z,100.00
2023-03-27T14:43:22.975Z,100.00
2023-03-27T14:45:56.502Z,100.00
2023-03-27T14:48:33.150Z,100.00
2023-03-27T14:51:09.448Z,98.03
2023-03-27T14:53:44.583Z,95.57
2023-03-27T14:56:30.790Z,92.35
2023-03-27T14:59:06.672Z,90.76
2023-03-27T15:01:35.593Z,86.35
2023-03-27T15:04:07.391Z,84.71
2023-03-27T15:06:37.567Z,80.32
2023-03-27T15:09:12.879Z,79.23
2023-03-27T15:11:44.312Z,78.52
2023-03-27T15:14:18.837Z,79.70
2023-03-27T15:17:00.847Z,80.06
2023-03-27T15:19:35.064Z,78.28
2023-03-27T15:22:19.087Z,78.71
2023-03-27T15:25:01.168Z,80.03
2023-03-27T15:27:34.212Z,82.37
2023-03-27T15:30:09.939Z,84.81
2023-03-27T15:32:50.185Z,88.11
2023-03-27T15:35:34.336Z,92.63
2023-03-27T15:38:05.329Z,96.30
2023-03-27T15:40:38.502Z,98.43
2023-03-27T15:43:22.345Z,100.00
2023-03-27T15:46:13.436Z,100.00
2023-03-27T15:48:50.791Z,100.00
2023-03-27T15:51:22.524Z,100.00
2023-03-27T15:53:58.224Z,100.00
2023-03-27T15:56:38.172Z,100.00
2023-03-27T15:59:09.792Z,100.00
2023-03-27T16:01:39.743Z,100.00
2023-03-27T16:04:16.626Z,100.00
2023-03-27T16:06:54.726Z,100.00
2023-03-27T16:09:41.178Z,100.00
2023-03-27T16:12:12.530Z,100.00
2023-03-27T16:14:49.470Z,100.00
2023-03-27T16:17:40.581Z,100.00
2023-03-27T16:20:12.780Z,100.00
2023-03-27T16:22:40.535Z,100.00
2023-03-27T16:25:11.427Z,100.00
2023-03-27T16:27:48.466Z,100.00
2023-03-27T16:30:30.644Z,96.25
2023-03-27T16:33:00.034Z,95.13
2023-03-27T16:35:31.060Z,93.27
2023-03-27T16:38:00.323Z,90.67
2023-03-27T16:40:29.009Z,90.19
2023-03-27T16:42:57.511Z,90.97
2023-03-27T16:45:27.895Z,92.16
2023-03-27T16:48:00.405Z,90.13
2023-03-27T16:50:35.321Z,87.68
2023-03-27T16:53:04.185Z,86.82
2023-03-27T16:55:36.924Z,84.14
2023-03-27T16:58:11.733Z,82.37
2023-03-27T17:00:46.559Z,84.39
2023-03-27T17:03:17.587Z,87.44
2023-03-27T17:05:48.294Z,90.49
2023-03-27T17:08:21.342Z,91.96
2023-03-27T17:10:53.941Z,92.76
2023-03-27T17:13:24.576Z,94.30
2023-03-27T17:15:57.685Z,96.06
2023-03-27T17:18:29.302Z,96.64
2023-03-27T17:21:00.028Z,94.69
2023-03-27T17:23:31.717Z,90.81
2023-03-27T17:26:09.249Z,89.62
2023-03-27T17:28:42.554Z,90.04
2023-03-27T17:31:13.415Z,91.68
2023-03-27T17:33:44.077Z,92.83
2023-03-27T17:36:14.643Z,94.67
2023-03-27T17:38:44.927Z,96.17
2023-03-27T17:41:17.174Z,97.62
2023-03-27T17:43:49.978Z,98.97
2023-03-27T17:46:18.709Z,100.00
2023-03-27T17:48:47.327Z,100.00
2023-03-27T17:51:16.336Z,100.00
2023-03-27T17:53:45.039Z,100.00
2023-03-27T17:56:13.626Z,100.00
2023-03-27T17:58:43.999Z,100.00
2023-03-27T18:01:21.438Z,100.00
2023-03-27T18:03:50.479Z,100.00
2023-03-27T18:06:21.250Z,100.00
2023-03-27T18:08:49.652Z,100.00
2023-03-27T18:11:18.912Z,100.00
2023-03-27T18:13:53.713Z,100.00
2023-03-27T18:16:23.073Z,100.00
2023-03-27T18:18:54.317Z,100.00
2023-03-27T18:21:23.291Z,100.00
2023-03-27T18:23:53.913Z,100.00
2023-03-27T18:26:22.427Z,100.00
2023-03-27T18:28:52.520Z,100.00
2023-03-27T18:31:21.207Z,100.00
2023-03-27T18:33:49.815Z,100.00
2023-03-27T18:36:19.207Z,100.00
2023-03-27T18:38:49.601Z,100.00
2023-03-27T18:41:18.798Z,100.00
2023-03-27T18:43:46.941Z,100.00
2023-03-27T18:46:17.525Z,100.00
2023-03-27T18:48:49.335Z,100.00
2023-03-27T18:51:20.706Z,100.00
2023-03-27T18:53:49.404Z,100.00
2023-03-27T18:56:18.648Z,100.00
2023-03-27T18:58:47.334Z,100.00
2023-03-27T19:01:16.197Z,100.00
2023-03-27T19:03:45.030Z,100.00
2023-03-27T19:06:14.302Z,100.00
2023-03-27T19:08:48.282Z,100.00
2023-03-27T19:11:17.391Z,100.00
2023-03-27T19:13:48.225Z,100.00
2023-03-27T19:16:16.630Z,100.00
2023-03-27T19:18:44.562Z,100.00
2023-03-27T19:21:12.946Z,100.00
2023-03-27T19:23:41.522Z,100.00
2023-03-27T19:26:13.520Z,100.00
2023-03-27T19:28:42.541Z,100.00
2023-03-27T19:31:13.290Z,100.00
2023-03-27T19:33:42.524Z,100.00
2023-03-27T19:36:11.349Z,100.00
2023-03-27T19:38:40.059Z,100.00
2023-03-27T19:41:12.539Z,100.00
2023-03-27T19:43:41.169Z,100.00
2023-03-27T19:48:43.116Z,100.00
2023-03-27T19:51:15.090Z,100.00
2023-03-27T19:53:43.668Z,100.00
2023-03-27T19:56:11.966Z,100.00
2023-03-27T19:58:40.812Z,100.00
2023-03-27T20:01:10.550Z,100.00
2023-03-27T20:03:39.873Z,100.00
2023-03-27T20:06:12.278Z,100.00
2023-03-27T20:08:42.776Z,100.00
2023-03-27T20:11:11.596Z,100.00
2023-03-27T20:13:53.249Z,100.00
2023-03-27T20:16:28.868Z,100.00
2023-03-27T20:19:04.191Z,100.00
2023-03-27T20:21:39.510Z,100.00
2023-03-27T20:24:10.341Z,100.00
2023-03-27T20:26:40.601Z,100.00
2023-03-27T20:29:14.972Z,100.00
2023-03-27T20:31:43.808Z,100.00
2023-03-27T20:34:12.982Z,100.00
2023-03-27T20:36:45.869Z,100.00
2023-03-27T20:39:14.900Z,100.00
2023-03-27T20:41:47.245Z,100.00
2023-03-27T20:44:16.077Z,100.00
2023-03-27T20:46:51.309Z,100.00
2023-03-27T20:51:59.166Z,100.00
2023-03-27T20:54:28.761Z,100.00
2023-03-27T20:56:57.701Z,100.00
2023-03-27T20:59:29.204Z,100.00
2023-03-27T21:01:59.804Z,100.00
2023-03-27T21:04:31.443Z,100.00
2023-03-27T21:07:00.331Z,100.00
2023-03-27T21:09:29.369Z,100.00
2023-03-27T21:11:56.577Z,100.00
2023-03-27T21:14:24.262Z,100.00
2023-03-27T21:16:51.517Z,100.00
2023-03-27T21:19:18.774Z,100.00
2023-03-27T21:21:46.104Z,100.00
2023-03-27T21:24:13.531Z,100.00
2023-03-27T21:26:41.596Z,100.00
2023-03-27T21:29:11.870Z,100.00
2023-03-27T21:31:40.152Z,100.00
2023-03-27T21:34:07.777Z,100.00
2023-03-27T21:36:37.941Z,100.00
2023-03-27T21:39:06.809Z,100.00
2023-03-27T21:41:36.010Z,100.00
2023-03-27T21:44:03.796Z,100.00
2023-03-27T21:46:31.666Z,100.00
2023-03-27T21:48:58.769Z,100.00
2023-03-27T21:51:26.059Z,100.00
2023-03-27T21:53:53.323Z,100.00
2023-03-27T21:56:21.374Z,100.00
2023-03-27T21:58:48.830Z,100.00
2023-03-27T22:01:18.026Z,100.00
2023-03-27T22:03:48.706Z,100.00
2023-03-27T22:06:19.488Z,100.00
2023-03-27T22:08:50.203Z,100.00
2023-03-27T22:11:25.311Z,100.00
2023-03-27T22:13:59.198Z,100.00
2023-03-27T22:16:29.872Z,100.00
2023-03-27T22:19:00.444Z,100.00
2023-03-27T22:21:31.805Z,100.00
2023-03-27T22:24:00.486Z,100.00
2023-03-27T22:26:39.888Z,100.00
2023-03-27T22:29:11.127Z,100.00
2023-03-27T22:32:01.633Z,100.00
2023-03-27T22:34:51.399Z,100.00
2023-03-27T22:37:43.013Z,100.00
2023-03-27T22:40:32.110Z,100.00
2023-03-27T22:43:23.531Z,100.00
2023-03-27T22:46:17.730Z,100.00
2023-03-27T22:49:07.857Z,100.00
2023-03-27T22:51:56.715Z,100.00
2023-03-27T22:54:47.256Z,100.00
2023-03-27T22:57:49.154Z,100.00
2023-03-27T23:00:37.875Z,100.00
2023-03-27T23:03:27.734Z,100.00
2023-03-27T23:06:24.794Z,100.00
2023-03-27T23:09:13.342Z,100.00
2023-03-27T23:12:01.990Z,100.00
2023-03-27T23:14:50.631Z,100.00
2023-03-27T23:17:38.292Z,100.00
2023-03-27T23:20:27.346Z,100.00
2023-03-27T23:23:17.183Z,100.00
2023-03-27T23:26:06.759Z,100.00
2023-03-27T23:28:54.064Z,100.00
2023-03-27T23:31:41.836Z,100.00
2023-03-27T23:34:30.666Z,100.00
2023-03-27T23:37:19.226Z,100.00
2023-03-27T23:40:08.572Z,100.00
2023-03-27T23:43:00.698Z,100.00
2023-03-27T23:45:48.415Z,100.00
2023-03-27T23:48:36.840Z,100.00
2023-03-27T23:51:24.418Z,100.00
2023-03-27T23:54:11.771Z,100.00
2023-03-27T23:57:01.549Z,100.00
2023-03-27T23:59:48.938Z,100.00
